sensor_id;sensor_type;location;lat;lon;timestamp;P1;durP1;ratioP1;P2;durP2;ratioP2
54191;SDS011;40101;53.002;6.488;2024-01-27T00:00:23;19.48;;;3.47;;
54191;SDS011;40101;53.002;6.488;2024-01-27T00:02:48;23.45;;;3.63;;
54191;SDS011;40101;53.002;6.488;2024-01-27T00:05:14;31.35;;;4.97;;
54191;SDS011;40101;53.002;6.488;2024-01-27T00:07:40;15.90;;;2.95;;
54191;SDS011;40101;53.002;6.488;2024-01-27T00:10:06;16.45;;;3.38;;
54191;SDS011;40101;53.002;6.488;2024-01-27T00:12:37;14.75;;;2.97;;
54191;SDS011;40101;53.002;6.488;2024-01-27T00:15:03;25.25;;;2.95;;
54191;SDS011;40101;53.002;6.488;2024-01-27T00:17:29;23.83;;;2.97;;
54191;SDS011;40101;53.002;6.488;2024-01-27T00:20:02;14.80;;;3.67;;
54191;SDS011;40101;53.002;6.488;2024-01-27T00:22:28;19.60;;;3.20;;
54191;SDS011;40101;53.002;6.488;2024-01-27T00:24:54;21.60;;;5.95;;
54191;SDS011;40101;53.002;6.488;2024-01-27T00:27:19;27.00;;;3.67;;
54191;SDS011;40101;53.002;6.488;2024-01-27T00:29:45;33.75;;;4.18;;
54191;SDS011;40101;53.002;6.488;2024-01-27T00:32:11;20.90;;;5.00;;
54191;SDS011;40101;53.002;6.488;2024-01-27T00:34:36;34.97;;;5.13;;
54191;SDS011;40101;53.002;6.488;2024-01-27T00:37:02;15.32;;;3.53;;
54191;SDS011;40101;53.002;6.488;2024-01-27T00:39:28;19.92;;;2.85;;
54191;SDS011;40101;53.002;6.488;2024-01-27T00:41:53;22.80;;;2.72;;
54191;SDS011;40101;53.002;6.488;2024-01-27T00:44:23;18.77;;;3.78;;
54191;SDS011;40101;53.002;6.488;2024-01-27T00:46:49;13.25;;;2.83;;
54191;SDS011;40101;53.002;6.488;2024-01-27T00:49:14;20.15;;;3.17;;
54191;SDS011;40101;53.002;6.488;2024-01-27T00:51:40;16.23;;;3.65;;
54191;SDS011;40101;53.002;6.488;2024-01-27T00:54:05;17.50;;;3.17;;
54191;SDS011;40101;53.002;6.488;2024-01-27T00:56:31;16.63;;;4.05;;
54191;SDS011;40101;53.002;6.488;2024-01-27T00:58:57;22.17;;;3.38;;
54191;SDS011;40101;53.002;6.488;2024-01-27T01:01:23;18.05;;;3.50;;
54191;SDS011;40101;53.002;6.488;2024-01-27T01:03:48;26.25;;;3.53;;
54191;SDS011;40101;53.002;6.488;2024-01-27T01:06:14;26.85;;;3.28;;
54191;SDS011;40101;53.002;6.488;2024-01-27T01:08:40;14.93;;;4.05;;
54191;SDS011;40101;53.002;6.488;2024-01-27T01:11:05;21.75;;;5.13;;
54191;SDS011;40101;53.002;6.488;2024-01-27T01:13:31;28.63;;;3.53;;
54191;SDS011;40101;53.002;6.488;2024-01-27T01:15:56;18.48;;;3.53;;
54191;SDS011;40101;53.002;6.488;2024-01-27T01:18:22;17.88;;;3.58;;
54191;SDS011;40101;53.002;6.488;2024-01-27T01:20:48;17.42;;;3.25;;
54191;SDS011;40101;53.002;6.488;2024-01-27T01:23:14;17.02;;;3.63;;
54191;SDS011;40101;53.002;6.488;2024-01-27T01:25:39;26.88;;;3.85;;
54191;SDS011;40101;53.002;6.488;2024-01-27T01:28:05;26.65;;;3.03;;
54191;SDS011;40101;53.002;6.488;2024-01-27T01:30:31;25.30;;;6.50;;
54191;SDS011;40101;53.002;6.488;2024-01-27T01:32:56;30.50;;;3.90;;
54191;SDS011;40101;53.002;6.488;2024-01-27T01:35:22;16.92;;;2.63;;
54191;SDS011;40101;53.002;6.488;2024-01-27T01:37:48;24.33;;;3.25;;
54191;SDS011;40101;53.002;6.488;2024-01-27T01:40:13;12.80;;;2.45;;
54191;SDS011;40101;53.002;6.488;2024-01-27T01:42:40;21.60;;;3.70;;
54191;SDS011;40101;53.002;6.488;2024-01-27T01:45:06;18.05;;;2.97;;
54191;SDS011;40101;53.002;6.488;2024-01-27T01:47:35;25.50;;;2.70;;
54191;SDS011;40101;53.002;6.488;2024-01-27T01:50:05;22.13;;;3.55;;
54191;SDS011;40101;53.002;6.488;2024-01-27T01:52:31;33.17;;;4.55;;
54191;SDS011;40101;53.002;6.488;2024-01-27T01:54:57;28.35;;;3.25;;
54191;SDS011;40101;53.002;6.488;2024-01-27T01:57:23;13.57;;;2.80;;
54191;SDS011;40101;53.002;6.488;2024-01-27T01:59:50;13.27;;;3.20;;
54191;SDS011;40101;53.002;6.488;2024-01-27T02:02:16;25.13;;;3.88;;
54191;SDS011;40101;53.002;6.488;2024-01-27T02:04:42;19.73;;;3.58;;
54191;SDS011;40101;53.002;6.488;2024-01-27T02:07:08;25.80;;;2.55;;
54191;SDS011;40101;53.002;6.488;2024-01-27T02:09:34;24.58;;;3.88;;
54191;SDS011;40101;53.002;6.488;2024-01-27T02:12:01;24.00;;;2.80;;
54191;SDS011;40101;53.002;6.488;2024-01-27T02:14:27;21.63;;;2.72;;
54191;SDS011;40101;53.002;6.488;2024-01-27T02:16:53;23.40;;;3.15;;
54191;SDS011;40101;53.002;6.488;2024-01-27T02:19:19;16.38;;;2.92;;
54191;SDS011;40101;53.002;6.488;2024-01-27T02:21:45;18.13;;;3.38;;
54191;SDS011;40101;53.002;6.488;2024-01-27T02:24:11;16.95;;;4.20;;
54191;SDS011;40101;53.002;6.488;2024-01-27T02:26:36;15.55;;;2.50;;
54191;SDS011;40101;53.002;6.488;2024-01-27T02:29:02;14.93;;;2.55;;
54191;SDS011;40101;53.002;6.488;2024-01-27T02:31:28;14.07;;;2.47;;
54191;SDS011;40101;53.002;6.488;2024-01-27T02:33:54;26.90;;;4.15;;
54191;SDS011;40101;53.002;6.488;2024-01-27T02:36:23;17.65;;;2.97;;
54191;SDS011;40101;53.002;6.488;2024-01-27T02:38:49;18.58;;;3.53;;
54191;SDS011;40101;53.002;6.488;2024-01-27T02:41:15;9.23;;;3.00;;
54191;SDS011;40101;53.002;6.488;2024-01-27T02:43:40;27.73;;;3.22;;
54191;SDS011;40101;53.002;6.488;2024-01-27T02:46:07;21.60;;;3.05;;
54191;SDS011;40101;53.002;6.488;2024-01-27T02:48:35;19.13;;;3.80;;
54191;SDS011;40101;53.002;6.488;2024-01-27T02:51:02;13.13;;;2.90;;
54191;SDS011;40101;53.002;6.488;2024-01-27T02:53:29;10.48;;;2.60;;
54191;SDS011;40101;53.002;6.488;2024-01-27T02:55:54;22.52;;;3.05;;
54191;SDS011;40101;53.002;6.488;2024-01-27T02:58:20;18.70;;;2.78;;
54191;SDS011;40101;53.002;6.488;2024-01-27T03:00:46;19.40;;;3.28;;
54191;SDS011;40101;53.002;6.488;2024-01-27T03:03:11;23.83;;;2.78;;
54191;SDS011;40101;53.002;6.488;2024-01-27T03:05:37;16.15;;;3.50;;
54191;SDS011;40101;53.002;6.488;2024-01-27T03:08:03;15.10;;;3.35;;
54191;SDS011;40101;53.002;6.488;2024-01-27T03:10:28;24.52;;;2.75;;
54191;SDS011;40101;53.002;6.488;2024-01-27T03:12:56;8.75;;;3.35;;
54191;SDS011;40101;53.002;6.488;2024-01-27T03:15:21;15.18;;;2.80;;
54191;SDS011;40101;53.002;6.488;2024-01-27T03:17:47;22.48;;;4.13;;
54191;SDS011;40101;53.002;6.488;2024-01-27T03:20:12;8.48;;;2.10;;
54191;SDS011;40101;53.002;6.488;2024-01-27T03:22:38;24.55;;;3.05;;
54191;SDS011;40101;53.002;6.488;2024-01-27T03:25:05;11.85;;;3.97;;
54191;SDS011;40101;53.002;6.488;2024-01-27T03:27:32;11.63;;;3.65;;
54191;SDS011;40101;53.002;6.488;2024-01-27T03:30:00;17.88;;;3.75;;
54191;SDS011;40101;53.002;6.488;2024-01-27T03:32:28;25.10;;;3.75;;
54191;SDS011;40101;53.002;6.488;2024-01-27T03:34:56;14.43;;;3.05;;
54191;SDS011;40101;53.002;6.488;2024-01-27T03:37:25;21.50;;;3.67;;
54191;SDS011;40101;53.002;6.488;2024-01-27T03:39:51;16.13;;;2.72;;
54191;SDS011;40101;53.002;6.488;2024-01-27T03:42:16;16.58;;;2.45;;
54191;SDS011;40101;53.002;6.488;2024-01-27T03:44:42;19.80;;;3.97;;
54191;SDS011;40101;53.002;6.488;2024-01-27T03:47:08;15.85;;;2.40;;
54191;SDS011;40101;53.002;6.488;2024-01-27T03:49:33;26.45;;;3.40;;
54191;SDS011;40101;53.002;6.488;2024-01-27T03:51:59;10.30;;;1.95;;
54191;SDS011;40101;53.002;6.488;2024-01-27T03:54:25;24.02;;;4.70;;
54191;SDS011;40101;53.002;6.488;2024-01-27T03:56:50;16.42;;;2.42;;
54191;SDS011;40101;53.002;6.488;2024-01-27T03:59:16;20.38;;;3.22;;
54191;SDS011;40101;53.002;6.488;2024-01-27T04:01:42;20.30;;;3.08;;
54191;SDS011;40101;53.002;6.488;2024-01-27T04:04:08;17.63;;;2.85;;
54191;SDS011;40101;53.002;6.488;2024-01-27T04:06:37;16.60;;;2.35;;
54191;SDS011;40101;53.002;6.488;2024-01-27T04:09:06;23.65;;;3.75;;
54191;SDS011;40101;53.002;6.488;2024-01-27T04:11:35;6.95;;;2.38;;
54191;SDS011;40101;53.002;6.488;2024-01-27T04:14:02;26.98;;;3.65;;
54191;SDS011;40101;53.002;6.488;2024-01-27T04:16:32;17.70;;;2.70;;
54191;SDS011;40101;53.002;6.488;2024-01-27T04:18:58;14.55;;;3.30;;
54191;SDS011;40101;53.002;6.488;2024-01-27T04:21:23;16.92;;;3.88;;
54191;SDS011;40101;53.002;6.488;2024-01-27T04:23:49;12.55;;;2.20;;
54191;SDS011;40101;53.002;6.488;2024-01-27T04:26:14;15.40;;;3.38;;
54191;SDS011;40101;53.002;6.488;2024-01-27T04:28:40;15.32;;;2.22;;
54191;SDS011;40101;53.002;6.488;2024-01-27T04:31:06;16.13;;;2.30;;
54191;SDS011;40101;53.002;6.488;2024-01-27T04:33:32;21.70;;;3.22;;
54191;SDS011;40101;53.002;6.488;2024-01-27T04:35:57;17.77;;;2.83;;
54191;SDS011;40101;53.002;6.488;2024-01-27T04:38:23;25.30;;;3.80;;
54191;SDS011;40101;53.002;6.488;2024-01-27T04:40:49;24.30;;;4.03;;
54191;SDS011;40101;53.002;6.488;2024-01-27T04:43:15;17.55;;;3.33;;
54191;SDS011;40101;53.002;6.488;2024-01-27T04:45:42;30.27;;;4.47;;
54191;SDS011;40101;53.002;6.488;2024-01-27T04:48:08;21.77;;;3.35;;
54191;SDS011;40101;53.002;6.488;2024-01-27T04:50:33;19.63;;;2.35;;
54191;SDS011;40101;53.002;6.488;2024-01-27T04:52:59;13.52;;;3.35;;
54191;SDS011;40101;53.002;6.488;2024-01-27T04:55:26;20.40;;;3.05;;
54191;SDS011;40101;53.002;6.488;2024-01-27T04:57:51;12.95;;;2.92;;
54191;SDS011;40101;53.002;6.488;2024-01-27T05:00:18;18.00;;;3.05;;
54191;SDS011;40101;53.002;6.488;2024-01-27T05:02:44;16.25;;;3.58;;
54191;SDS011;40101;53.002;6.488;2024-01-27T05:05:10;16.55;;;4.82;;
54191;SDS011;40101;53.002;6.488;2024-01-27T05:07:37;13.65;;;2.42;;
54191;SDS011;40101;53.002;6.488;2024-01-27T05:10:03;14.60;;;3.03;;
54191;SDS011;40101;53.002;6.488;2024-01-27T05:12:30;15.18;;;2.75;;
54191;SDS011;40101;53.002;6.488;2024-01-27T05:14:55;12.57;;;2.92;;
54191;SDS011;40101;53.002;6.488;2024-01-27T05:17:21;12.40;;;2.47;;
54191;SDS011;40101;53.002;6.488;2024-01-27T05:19:47;13.80;;;3.38;;
54191;SDS011;40101;53.002;6.488;2024-01-27T05:22:14;18.73;;;3.53;;
54191;SDS011;40101;53.002;6.488;2024-01-27T05:24:40;21.60;;;2.83;;
54191;SDS011;40101;53.002;6.488;2024-01-27T05:27:05;15.77;;;2.78;;
54191;SDS011;40101;53.002;6.488;2024-01-27T05:29:31;17.90;;;2.83;;
54191;SDS011;40101;53.002;6.488;2024-01-27T05:31:56;7.55;;;2.33;;
54191;SDS011;40101;53.002;6.488;2024-01-27T05:34:22;19.92;;;3.08;;
54191;SDS011;40101;53.002;6.488;2024-01-27T05:36:48;12.75;;;3.80;;
54191;SDS011;40101;53.002;6.488;2024-01-27T05:39:15;19.95;;;3.67;;
54191;SDS011;40101;53.002;6.488;2024-01-27T05:41:40;14.43;;;3.50;;
54191;SDS011;40101;53.002;6.488;2024-01-27T05:44:06;20.13;;;3.55;;
54191;SDS011;40101;53.002;6.488;2024-01-27T05:46:47;15.57;;;2.78;;
54191;SDS011;40101;53.002;6.488;2024-01-27T05:49:19;13.57;;;2.80;;
54191;SDS011;40101;53.002;6.488;2024-01-27T05:51:48;19.83;;;2.95;;
54191;SDS011;40101;53.002;6.488;2024-01-27T05:57:40;15.43;;;2.88;;
54191;SDS011;40101;53.002;6.488;2024-01-27T06:00:11;17.50;;;3.17;;
54191;SDS011;40101;53.002;6.488;2024-01-27T06:02:37;14.35;;;2.88;;
54191;SDS011;40101;53.002;6.488;2024-01-27T06:05:03;17.38;;;3.13;;
54191;SDS011;40101;53.002;6.488;2024-01-27T06:07:29;24.08;;;3.92;;
54191;SDS011;40101;53.002;6.488;2024-01-27T06:09:58;19.50;;;3.33;;
54191;SDS011;40101;53.002;6.488;2024-01-27T06:12:24;18.58;;;4.20;;
54191;SDS011;40101;53.002;6.488;2024-01-27T06:14:50;18.67;;;2.70;;
54191;SDS011;40101;53.002;6.488;2024-01-27T06:17:15;17.77;;;3.50;;
54191;SDS011;40101;53.002;6.488;2024-01-27T06:19:41;14.57;;;3.10;;
54191;SDS011;40101;53.002;6.488;2024-01-27T06:22:10;16.00;;;4.68;;
54191;SDS011;40101;53.002;6.488;2024-01-27T06:24:41;31.20;;;3.78;;
54191;SDS011;40101;53.002;6.488;2024-01-27T06:27:08;30.85;;;4.05;;
54191;SDS011;40101;53.002;6.488;2024-01-27T06:29:34;18.63;;;3.38;;
54191;SDS011;40101;53.002;6.488;2024-01-27T06:32:00;14.35;;;2.83;;
54191;SDS011;40101;53.002;6.488;2024-01-27T06:38:18;21.02;;;4.07;;
54191;SDS011;40101;53.002;6.488;2024-01-27T06:41:04;15.57;;;3.05;;
54191;SDS011;40101;53.002;6.488;2024-01-27T06:44:03;15.77;;;3.85;;
54191;SDS011;40101;53.002;6.488;2024-01-27T06:46:32;19.73;;;4.50;;
54191;SDS011;40101;53.002;6.488;2024-01-27T06:48:58;28.52;;;5.05;;
54191;SDS011;40101;53.002;6.488;2024-01-27T06:51:24;17.05;;;3.70;;
54191;SDS011;40101;53.002;6.488;2024-01-27T06:53:50;20.80;;;3.40;;
54191;SDS011;40101;53.002;6.488;2024-01-27T06:56:18;28.88;;;4.22;;
54191;SDS011;40101;53.002;6.488;2024-01-27T06:58:44;23.23;;;3.65;;
54191;SDS011;40101;53.002;6.488;2024-01-27T07:01:10;18.33;;;3.85;;
54191;SDS011;40101;53.002;6.488;2024-01-27T07:06:41;14.43;;;3.45;;
54191;SDS011;40101;53.002;6.488;2024-01-27T07:09:15;14.77;;;3.40;;
54191;SDS011;40101;53.002;6.488;2024-01-27T07:11:47;12.55;;;3.75;;
54191;SDS011;40101;53.002;6.488;2024-01-27T07:14:13;20.77;;;4.78;;
54191;SDS011;40101;53.002;6.488;2024-01-27T07:16:39;22.63;;;3.72;;
54191;SDS011;40101;53.002;6.488;2024-01-27T07:19:05;20.88;;;3.88;;
54191;SDS011;40101;53.002;6.488;2024-01-27T07:21:30;19.98;;;4.15;;
54191;SDS011;40101;53.002;6.488;2024-01-27T07:23:56;18.90;;;3.67;;
54191;SDS011;40101;53.002;6.488;2024-01-27T07:26:22;16.98;;;3.28;;
54191;SDS011;40101;53.002;6.488;2024-01-27T07:28:53;22.48;;;3.95;;
54191;SDS011;40101;53.002;6.488;2024-01-27T07:31:19;22.48;;;4.53;;
54191;SDS011;40101;53.002;6.488;2024-01-27T07:33:47;26.92;;;4.50;;
54191;SDS011;40101;53.002;6.488;2024-01-27T07:36:13;21.45;;;4.80;;
54191;SDS011;40101;53.002;6.488;2024-01-27T07:38:39;22.60;;;3.83;;
54191;SDS011;40101;53.002;6.488;2024-01-27T07:41:05;19.40;;;4.55;;
54191;SDS011;40101;53.002;6.488;2024-01-27T07:43:30;26.08;;;4.45;;
54191;SDS011;40101;53.002;6.488;2024-01-27T07:46:01;25.95;;;5.28;;
54191;SDS011;40101;53.002;6.488;2024-01-27T07:55:41;16.08;;;7.05;;
54191;SDS011;40101;53.002;6.488;2024-01-27T07:58:12;19.55;;;7.03;;
54191;SDS011;40101;53.002;6.488;2024-01-27T08:00:38;27.27;;;7.93;;
54191;SDS011;40101;53.002;6.488;2024-01-27T08:03:04;22.95;;;7.15;;
54191;SDS011;40101;53.002;6.488;2024-01-27T08:05:30;27.40;;;7.38;;
54191;SDS011;40101;53.002;6.488;2024-01-27T08:07:55;38.58;;;7.15;;
54191;SDS011;40101;53.002;6.488;2024-01-27T08:10:22;27.70;;;7.05;;
54191;SDS011;40101;53.002;6.488;2024-01-27T08:12:53;18.08;;;7.03;;
54191;SDS011;40101;53.002;6.488;2024-01-27T08:18:29;21.52;;;6.95;;
54191;SDS011;40101;53.002;6.488;2024-01-27T08:20:55;16.15;;;6.65;;
54191;SDS011;40101;53.002;6.488;2024-01-27T08:23:21;17.67;;;7.20;;
54191;SDS011;40101;53.002;6.488;2024-01-27T08:25:46;21.65;;;7.53;;
54191;SDS011;40101;53.002;6.488;2024-01-27T08:28:20;16.23;;;5.57;;
54191;SDS011;40101;53.002;6.488;2024-01-27T08:30:46;14.82;;;5.47;;
54191;SDS011;40101;53.002;6.488;2024-01-27T08:33:15;19.15;;;5.15;;
54191;SDS011;40101;53.002;6.488;2024-01-27T08:35:41;14.45;;;5.80;;
54191;SDS011;40101;53.002;6.488;2024-01-27T08:38:33;19.48;;;6.82;;
54191;SDS011;40101;53.002;6.488;2024-01-27T08:40:59;22.67;;;5.63;;
54191;SDS011;40101;53.002;6.488;2024-01-27T08:43:25;19.08;;;6.90;;
54191;SDS011;40101;53.002;6.488;2024-01-27T08:45:50;11.52;;;5.18;;
54191;SDS011;40101;53.002;6.488;2024-01-27T08:48:16;12.70;;;5.47;;
54191;SDS011;40101;53.002;6.488;2024-01-27T08:50:42;13.82;;;5.00;;
54191;SDS011;40101;53.002;6.488;2024-01-27T08:53:07;16.83;;;4.55;;
54191;SDS011;40101;53.002;6.488;2024-01-27T08:55:34;16.60;;;4.78;;
54191;SDS011;40101;53.002;6.488;2024-01-27T08:57:59;18.40;;;4.97;;
54191;SDS011;40101;53.002;6.488;2024-01-27T09:00:25;8.57;;;4.57;;
54191;SDS011;40101;53.002;6.488;2024-01-27T09:02:51;17.65;;;4.45;;
54191;SDS011;40101;53.002;6.488;2024-01-27T09:05:18;15.73;;;5.30;;
54191;SDS011;40101;53.002;6.488;2024-01-27T09:07:44;18.50;;;5.03;;
54191;SDS011;40101;53.002;6.488;2024-01-27T09:10:09;16.25;;;5.35;;
54191;SDS011;40101;53.002;6.488;2024-01-27T09:12:37;15.70;;;5.53;;
54191;SDS011;40101;53.002;6.488;2024-01-27T09:15:04;8.55;;;3.45;;
54191;SDS011;40101;53.002;6.488;2024-01-27T09:17:31;17.13;;;4.15;;
54191;SDS011;40101;53.002;6.488;2024-01-27T09:19:56;11.45;;;4.38;;
54191;SDS011;40101;53.002;6.488;2024-01-27T09:22:22;12.35;;;4.22;;
54191;SDS011;40101;53.002;6.488;2024-01-27T09:24:48;17.80;;;3.90;;
54191;SDS011;40101;53.002;6.488;2024-01-27T09:27:13;18.60;;;5.05;;
54191;SDS011;40101;53.002;6.488;2024-01-27T09:29:39;14.73;;;4.25;;
54191;SDS011;40101;53.002;6.488;2024-01-27T09:32:05;12.68;;;3.90;;
54191;SDS011;40101;53.002;6.488;2024-01-27T09:34:31;14.55;;;4.28;;
54191;SDS011;40101;53.002;6.488;2024-01-27T09:36:56;18.30;;;4.82;;
54191;SDS011;40101;53.002;6.488;2024-01-27T09:39:22;21.77;;;5.43;;
54191;SDS011;40101;53.002;6.488;2024-01-27T09:41:48;14.23;;;3.78;;
54191;SDS011;40101;53.002;6.488;2024-01-27T09:44:15;18.75;;;4.57;;
54191;SDS011;40101;53.002;6.488;2024-01-27T09:46:43;16.58;;;4.40;;
54191;SDS011;40101;53.002;6.488;2024-01-27T09:49:10;19.60;;;5.18;;
54191;SDS011;40101;53.002;6.488;2024-01-27T09:51:40;15.00;;;4.32;;
54191;SDS011;40101;53.002;6.488;2024-01-27T09:54:07;18.35;;;4.70;;
54191;SDS011;40101;53.002;6.488;2024-01-27T09:56:32;15.77;;;4.43;;
54191;SDS011;40101;53.002;6.488;2024-01-27T09:59:00;12.55;;;5.10;;
54191;SDS011;40101;53.002;6.488;2024-01-27T10:01:26;16.92;;;4.38;;
54191;SDS011;40101;53.002;6.488;2024-01-27T10:03:53;21.73;;;5.22;;
54191;SDS011;40101;53.002;6.488;2024-01-27T10:06:20;16.00;;;5.50;;
54191;SDS011;40101;53.002;6.488;2024-01-27T10:08:55;18.27;;;4.53;;
54191;SDS011;40101;53.002;6.488;2024-01-27T10:11:21;19.95;;;4.43;;
54191;SDS011;40101;53.002;6.488;2024-01-27T10:13:54;12.85;;;5.28;;
54191;SDS011;40101;53.002;6.488;2024-01-27T10:16:39;13.93;;;4.55;;
54191;SDS011;40101;53.002;6.488;2024-01-27T10:19:14;21.95;;;5.07;;
54191;SDS011;40101;53.002;6.488;2024-01-27T10:21:42;19.00;;;6.75;;
54191;SDS011;40101;53.002;6.488;2024-01-27T10:24:08;17.45;;;5.97;;
54191;SDS011;40101;53.002;6.488;2024-01-27T10:26:34;14.18;;;4.05;;
54191;SDS011;40101;53.002;6.488;2024-01-27T10:29:00;14.52;;;4.55;;
54191;SDS011;40101;53.002;6.488;2024-01-27T10:31:44;15.38;;;5.03;;
54191;SDS011;40101;53.002;6.488;2024-01-27T10:34:10;18.20;;;5.10;;
54191;SDS011;40101;53.002;6.488;2024-01-27T10:36:43;17.05;;;4.47;;
54191;SDS011;40101;53.002;6.488;2024-01-27T10:39:22;22.63;;;6.65;;
54191;SDS011;40101;53.002;6.488;2024-01-27T10:41:49;17.70;;;5.82;;
54191;SDS011;40101;53.002;6.488;2024-01-27T10:44:17;17.80;;;5.40;;
54191;SDS011;40101;53.002;6.488;2024-01-27T10:46:45;9.02;;;4.00;;
54191;SDS011;40101;53.002;6.488;2024-01-27T10:49:12;10.20;;;3.67;;
54191;SDS011;40101;53.002;6.488;2024-01-27T10:51:44;20.08;;;5.10;;
54191;SDS011;40101;53.002;6.488;2024-01-27T10:54:14;16.15;;;4.75;;
54191;SDS011;40101;53.002;6.488;2024-01-27T10:56:45;23.95;;;5.68;;
54191;SDS011;40101;53.002;6.488;2024-01-27T10:59:11;21.38;;;5.03;;
54191;SDS011;40101;53.002;6.488;2024-01-27T11:01:38;13.07;;;4.38;;
54191;SDS011;40101;53.002;6.488;2024-01-27T11:04:06;15.38;;;4.20;;
54191;SDS011;40101;53.002;6.488;2024-01-27T11:06:34;15.68;;;4.55;;
54191;SDS011;40101;53.002;6.488;2024-01-27T11:09:02;22.73;;;5.20;;
54191;SDS011;40101;53.002;6.488;2024-01-27T11:11:29;17.85;;;3.63;;
54191;SDS011;40101;53.002;6.488;2024-01-27T11:13:54;16.23;;;6.55;;
54191;SDS011;40101;53.002;6.488;2024-01-27T11:16:20;22.02;;;5.00;;
54191;SDS011;40101;53.002;6.488;2024-01-27T11:18:48;14.07;;;4.18;;
54191;SDS011;40101;53.002;6.488;2024-01-27T11:21:14;24.98;;;6.10;;
54191;SDS011;40101;53.002;6.488;2024-01-27T11:23:41;19.42;;;4.70;;
54191;SDS011;40101;53.002;6.488;2024-01-27T11:26:07;20.40;;;5.15;;
54191;SDS011;40101;53.002;6.488;2024-01-27T11:28:34;14.32;;;3.55;;
54191;SDS011;40101;53.002;6.488;2024-01-27T11:31:04;22.50;;;4.45;;
54191;SDS011;40101;53.002;6.488;2024-01-27T11:33:31;17.35;;;5.32;;
54191;SDS011;40101;53.002;6.488;2024-01-27T11:36:03;20.17;;;4.82;;
54191;SDS011;40101;53.002;6.488;2024-01-27T11:38:30;23.45;;;6.18;;
54191;SDS011;40101;53.002;6.488;2024-01-27T11:40:57;18.30;;;6.00;;
54191;SDS011;40101;53.002;6.488;2024-01-27T11:43:23;12.13;;;4.10;;
54191;SDS011;40101;53.002;6.488;2024-01-27T11:45:58;20.90;;;4.10;;
54191;SDS011;40101;53.002;6.488;2024-01-27T11:48:25;16.08;;;3.38;;
54191;SDS011;40101;53.002;6.488;2024-01-27T11:51:08;13.98;;;3.90;;
54191;SDS011;40101;53.002;6.488;2024-01-27T11:53:37;26.50;;;4.10;;
54191;SDS011;40101;53.002;6.488;2024-01-27T11:56:07;15.02;;;3.88;;
54191;SDS011;40101;53.002;6.488;2024-01-27T11:58:37;24.67;;;4.80;;
54191;SDS011;40101;53.002;6.488;2024-01-27T12:01:03;17.52;;;4.85;;
54191;SDS011;40101;53.002;6.488;2024-01-27T12:03:35;21.50;;;4.28;;
54191;SDS011;40101;53.002;6.488;2024-01-27T12:06:15;20.15;;;3.70;;
54191;SDS011;40101;53.002;6.488;2024-01-27T12:14:56;15.30;;;4.13;;
54191;SDS011;40101;53.002;6.488;2024-01-27T12:17:26;13.23;;;4.53;;
54191;SDS011;40101;53.002;6.488;2024-01-27T12:20:16;19.33;;;4.43;;
54191;SDS011;40101;53.002;6.488;2024-01-27T12:23:15;14.82;;;4.05;;
54191;SDS011;40101;53.002;6.488;2024-01-27T12:25:52;23.70;;;4.97;;
54191;SDS011;40101;53.002;6.488;2024-01-27T12:28:30;17.35;;;4.95;;
54191;SDS011;40101;53.002;6.488;2024-01-27T12:30:59;19.35;;;4.15;;
54191;SDS011;40101;53.002;6.488;2024-01-27T12:33:34;20.15;;;5.15;;
54191;SDS011;40101;53.002;6.488;2024-01-27T12:36:02;10.75;;;3.28;;
54191;SDS011;40101;53.002;6.488;2024-01-27T12:38:38;15.00;;;3.50;;
54191;SDS011;40101;53.002;6.488;2024-01-27T12:41:04;16.67;;;3.70;;
54191;SDS011;40101;53.002;6.488;2024-01-27T12:43:33;12.48;;;3.95;;
54191;SDS011;40101;53.002;6.488;2024-01-27T12:46:07;10.57;;;3.22;;
54191;SDS011;40101;53.002;6.488;2024-01-27T12:48:36;13.50;;;3.92;;
54191;SDS011;40101;53.002;6.488;2024-01-27T12:51:06;23.92;;;4.95;;
54191;SDS011;40101;53.002;6.488;2024-01-27T12:53:38;17.13;;;3.30;;
54191;SDS011;40101;53.002;6.488;2024-01-27T12:56:07;20.23;;;4.57;;
54191;SDS011;40101;53.002;6.488;2024-01-27T12:58:41;11.35;;;3.10;;
54191;SDS011;40101;53.002;6.488;2024-01-27T13:01:27;16.98;;;4.40;;
54191;SDS011;40101;53.002;6.488;2024-01-27T13:04:10;16.85;;;3.72;;
54191;SDS011;40101;53.002;6.488;2024-01-27T13:06:40;23.35;;;4.68;;
54191;SDS011;40101;53.002;6.488;2024-01-27T13:09:09;16.27;;;3.47;;
54191;SDS011;40101;53.002;6.488;2024-01-27T13:11:57;13.75;;;3.35;;
54191;SDS011;40101;53.002;6.488;2024-01-27T13:14:29;23.50;;;3.00;;
54191;SDS011;40101;53.002;6.488;2024-01-27T13:16:56;18.27;;;4.90;;
54191;SDS011;40101;53.002;6.488;2024-01-27T13:19:46;12.73;;;3.17;;
54191;SDS011;40101;53.002;6.488;2024-01-27T13:22:25;11.27;;;3.42;;
54191;SDS011;40101;53.002;6.488;2024-01-27T13:24:59;13.30;;;3.25;;
54191;SDS011;40101;53.002;6.488;2024-01-27T13:28:04;9.80;;;3.05;;
54191;SDS011;40101;53.002;6.488;2024-01-27T13:30:46;19.00;;;3.55;;
54191;SDS011;40101;53.002;6.488;2024-01-27T13:33:19;14.57;;;3.50;;
54191;SDS011;40101;53.002;6.488;2024-01-27T13:36:15;14.43;;;3.05;;
54191;SDS011;40101;53.002;6.488;2024-01-27T13:39:06;11.52;;;3.63;;
54191;SDS011;40101;53.002;6.488;2024-01-27T13:41:58;17.55;;;4.10;;
54191;SDS011;40101;53.002;6.488;2024-01-27T13:44:55;17.80;;;3.30;;
54191;SDS011;40101;53.002;6.488;2024-01-27T13:47:34;13.82;;;3.47;;
54191;SDS011;40101;53.002;6.488;2024-01-27T13:50:22;13.57;;;3.88;;
54191;SDS011;40101;53.002;6.488;2024-01-27T13:53:03;21.88;;;5.63;;
54191;SDS011;40101;53.002;6.488;2024-01-27T13:56:05;17.15;;;3.92;;
54191;SDS011;40101;53.002;6.488;2024-01-27T13:59:25;13.40;;;4.07;;
54191;SDS011;40101;53.002;6.488;2024-01-27T14:01:49;14.75;;;3.47;;
54191;SDS011;40101;53.002;6.488;2024-01-27T14:04:24;14.68;;;3.25;;
54191;SDS011;40101;53.002;6.488;2024-01-27T14:07:31;16.02;;;3.22;;
54191;SDS011;40101;53.002;6.488;2024-01-27T14:16:25;13.88;;;4.20;;
54191;SDS011;40101;53.002;6.488;2024-01-27T14:18:57;10.30;;;4.03;;
54191;SDS011;40101;53.002;6.488;2024-01-27T14:25:19;11.38;;;3.47;;
54191;SDS011;40101;53.002;6.488;2024-01-27T14:31:18;25.58;;;6.32;;
54191;SDS011;40101;53.002;6.488;2024-01-27T14:34:14;19.42;;;5.60;;
54191;SDS011;40101;53.002;6.488;2024-01-27T14:37:13;26.55;;;5.35;;
54191;SDS011;40101;53.002;6.488;2024-01-27T14:43:06;26.23;;;4.85;;
54191;SDS011;40101;53.002;6.488;2024-01-27T14:49:06;25.00;;;5.85;;
54191;SDS011;40101;53.002;6.488;2024-01-27T14:52:24;12.82;;;3.55;;
54191;SDS011;40101;53.002;6.488;2024-01-27T15:00:43;17.55;;;3.25;;
54191;SDS011;40101;53.002;6.488;2024-01-27T15:03:46;16.20;;;4.22;;
54191;SDS011;40101;53.002;6.488;2024-01-27T15:27:53;18.45;;;4.20;;
54191;SDS011;40101;53.002;6.488;2024-01-27T15:30:26;19.45;;;3.42;;
54191;SDS011;40101;53.002;6.488;2024-01-27T15:33:04;10.95;;;4.45;;
54191;SDS011;40101;53.002;6.488;2024-01-27T15:35:34;21.23;;;4.20;;
54191;SDS011;40101;53.002;6.488;2024-01-27T15:38:02;15.40;;;3.80;;
54191;SDS011;40101;53.002;6.488;2024-01-27T15:40:37;14.70;;;4.53;;
54191;SDS011;40101;53.002;6.488;2024-01-27T15:43:44;14.00;;;3.90;;
54191;SDS011;40101;53.002;6.488;2024-01-27T15:46:20;16.00;;;4.45;;
54191;SDS011;40101;53.002;6.488;2024-01-27T15:48:53;14.32;;;4.05;;
54191;SDS011;40101;53.002;6.488;2024-01-27T15:51:29;18.88;;;4.13;;
54191;SDS011;40101;53.002;6.488;2024-01-27T15:53:59;15.88;;;4.60;;
54191;SDS011;40101;53.002;6.488;2024-01-27T15:56:31;14.13;;;4.88;;
54191;SDS011;40101;53.002;6.488;2024-01-27T15:58:58;15.90;;;4.25;;
54191;SDS011;40101;53.002;6.488;2024-01-27T16:01:27;26.13;;;5.65;;
54191;SDS011;40101;53.002;6.488;2024-01-27T16:03:52;12.05;;;4.82;;